CGMPW LFQB-LIPZ
Flight info
| Callsign | CGMPW |
|---|---|
| Flight time | 1h 8m |
| Altitude | 35000 |
| Route | LUVAL DCT DEVDI DCT ODINA DCT ALBET |
| Aircraft | PC24/L-SBDGIRWY/LB2 |
Departure
| Time | 2026-04-28 09:17 |
|---|---|
| Airport | Troyes-Barberey Airport (LFQB) |
Arrival
| Time | 2026-04-28 10:25 |
|---|---|
| Airport | Venice Marco Polo Airport (LIPZ) |
| Time | Latitude | Longitude | Altitude | Speed | Heading |
|---|---|---|---|---|---|
| 2026-04-28 09:17 | 48.27245 | 4.28597 | 10001 ft | 322 kts | 131° |
| 2026-04-28 09:17 | 48.25801 | 4.31160 | 9998 ft | 322 kts | 131° |
| 2026-04-28 09:18 | 48.24354 | 4.33734 | 9996 ft | 322 kts | 131° |
| 2026-04-28 09:18 | 48.22919 | 4.36290 | 9991 ft | 322 kts | 131° |
| 2026-04-28 09:18 | 48.21492 | 4.38827 | 10400 ft | 315 kts | 131° |
| 2026-04-28 09:18 | 48.20059 | 4.41378 | 11139 ft | 323 kts | 131° |
| 2026-04-28 09:19 | 48.18661 | 4.43995 | 11876 ft | 331 kts | 123° |
| 2026-04-28 09:19 | 48.17944 | 4.47289 | 12619 ft | 338 kts | 99° |
| 2026-04-28 09:19 | 48.17758 | 4.50829 | 13417 ft | 344 kts | 95° |
| 2026-04-28 09:19 | 48.17568 | 4.54419 | 14183 ft | 347 kts | 98° |
| 2026-04-28 09:20 | 48.17132 | 4.57999 | 14908 ft | 352 kts | 105° |
| 2026-04-28 09:20 | 48.16546 | 4.61592 | 15652 ft | 357 kts | 105° |
| 2026-04-28 09:20 | 48.16045 | 4.65260 | 16413 ft | 363 kts | 102° |
| 2026-04-28 09:20 | 48.15594 | 4.69017 | 17196 ft | 369 kts | 103° |
| 2026-04-28 09:21 | 48.15098 | 4.72823 | 17996 ft | 375 kts | 104° |
| 2026-04-28 09:21 | 48.14567 | 4.76679 | 18744 ft | 380 kts | 104° |
| 2026-04-28 09:21 | 48.14044 | 4.80578 | 19458 ft | 384 kts | 104° |
| 2026-04-28 09:21 | 48.13525 | 4.84524 | 20184 ft | 388 kts | 104° |
| 2026-04-28 09:22 | 48.12996 | 4.88492 | 20935 ft | 390 kts | 104° |
| 2026-04-28 09:22 | 48.12460 | 4.92434 | 21700 ft | 391 kts | 104° |
| 2026-04-28 09:22 | 48.11919 | 4.96446 | 22493 ft | 392 kts | 104° |
| 2026-04-28 09:22 | 48.11379 | 5.00451 | 23287 ft | 392 kts | 104° |
| 2026-04-28 09:23 | 48.10838 | 5.04450 | 24036 ft | 392 kts | 104° |
| 2026-04-28 09:23 | 48.10146 | 5.08359 | 24707 ft | 385 kts | 117° |
| 2026-04-28 09:23 | 48.08828 | 5.11777 | 25406 ft | 376 kts | 130° |
| 2026-04-28 09:23 | 48.07303 | 5.14926 | 26139 ft | 373 kts | 133° |
| 2026-04-28 09:24 | 48.05836 | 5.18160 | 26703 ft | 380 kts | 127° |
| 2026-04-28 09:24 | 48.04577 | 5.21666 | 27295 ft | 385 kts | 122° |
| 2026-04-28 09:24 | 48.03388 | 5.25262 | 27899 ft | 386 kts | 124° |
| 2026-04-28 09:24 | 48.02098 | 5.28768 | 28517 ft | 384 kts | 127° |
| 2026-04-28 09:25 | 48.00752 | 5.32217 | 29143 ft | 385 kts | 128° |
| 2026-04-28 09:25 | 47.99444 | 5.35702 | 29782 ft | 385 kts | 127° |
| 2026-04-28 09:25 | 47.98179 | 5.39177 | 30375 ft | 384 kts | 127° |
| 2026-04-28 09:25 | 47.96891 | 5.42661 | 30929 ft | 383 kts | 127° |
| 2026-04-28 09:26 | 47.95589 | 5.46121 | 31495 ft | 380 kts | 127° |
| 2026-04-28 09:26 | 47.94302 | 5.49555 | 32073 ft | 378 kts | 127° |
| 2026-04-28 09:26 | 47.93025 | 5.52980 | 32656 ft | 376 kts | 126° |
| 2026-04-28 09:26 | 47.91759 | 5.56364 | 33243 ft | 372 kts | 126° |
| 2026-04-28 09:27 | 47.89256 | 5.63025 | 34408 ft | 364 kts | 126° |
| 2026-04-28 09:27 | 47.88017 | 5.66321 | 34853 ft | 364 kts | 126° |
| 2026-04-28 09:27 | 47.86762 | 5.69643 | 34963 ft | 374 kts | 125° |
| 2026-04-28 09:28 | 47.85461 | 5.73081 | 34982 ft | 387 kts | 125° |
| 2026-04-28 09:28 | 47.84142 | 5.76581 | 34984 ft | 399 kts | 124° |
| 2026-04-28 09:28 | 47.82764 | 5.80236 | 34985 ft | 410 kts | 124° |
| 2026-04-28 09:28 | 47.81344 | 5.83988 | 34984 ft | 421 kts | 124° |
| 2026-04-28 09:29 | 47.78405 | 5.91735 | 34976 ft | 437 kts | 124° |
| 2026-04-28 09:29 | 47.75378 | 5.99697 | 34985 ft | 450 kts | 124° |
| 2026-04-28 09:30 | 47.72272 | 6.07839 | 34982 ft | 454 kts | 124° |
| 2026-04-28 09:30 | 47.69156 | 6.15985 | 34982 ft | 452 kts | 124° |
| 2026-04-28 09:31 | 47.66045 | 6.24088 | 34980 ft | 451 kts | 124° |
| 2026-04-28 09:31 | 47.62942 | 6.32148 | 34968 ft | 449 kts | 124° |
| 2026-04-28 09:32 | 47.59840 | 6.40173 | 34974 ft | 454 kts | 124° |
| 2026-04-28 09:32 | 47.56696 | 6.48297 | 34967 ft | 454 kts | 124° |
| 2026-04-28 09:33 | 47.53544 | 6.56402 | 34971 ft | 454 kts | 125° |
| 2026-04-28 09:33 | 47.50396 | 6.64486 | 34974 ft | 453 kts | 125° |
| 2026-04-28 09:34 | 47.47243 | 6.72549 | 34970 ft | 453 kts | 124° |
| 2026-04-28 09:34 | 47.44083 | 6.80611 | 34968 ft | 453 kts | 124° |
| 2026-04-28 09:35 | 47.40922 | 6.88648 | 34970 ft | 452 kts | 124° |
| 2026-04-28 09:35 | 47.37756 | 6.96674 | 34965 ft | 452 kts | 124° |
| 2026-04-28 09:36 | 47.34585 | 7.04694 | 34970 ft | 452 kts | 124° |
| 2026-04-28 09:36 | 47.31429 | 7.12649 | 34987 ft | 451 kts | 124° |
| 2026-04-28 09:37 | 47.28261 | 7.20609 | 34990 ft | 450 kts | 124° |
| 2026-04-28 09:37 | 47.25108 | 7.28510 | 34994 ft | 450 kts | 124° |
| 2026-04-28 09:38 | 47.21931 | 7.36447 | 34995 ft | 449 kts | 124° |
| 2026-04-28 09:38 | 47.18756 | 7.44359 | 34989 ft | 449 kts | 124° |
| 2026-04-28 09:39 | 47.15573 | 7.52263 | 34981 ft | 448 kts | 124° |
| 2026-04-28 09:39 | 47.12401 | 7.60122 | 34975 ft | 447 kts | 125° |
| 2026-04-28 09:40 | 47.09229 | 7.67954 | 34976 ft | 446 kts | 125° |
| 2026-04-28 09:40 | 47.06063 | 7.75746 | 34977 ft | 448 kts | 125° |
| 2026-04-28 09:41 | 47.02863 | 7.83621 | 34981 ft | 450 kts | 124° |
| 2026-04-28 09:41 | 46.99651 | 7.91480 | 34984 ft | 448 kts | 125° |
| 2026-04-28 09:42 | 46.96452 | 7.99291 | 34985 ft | 445 kts | 125° |
| 2026-04-28 09:42 | 46.93251 | 8.07082 | 34987 ft | 447 kts | 125° |
| 2026-04-28 09:43 | 46.90032 | 8.14896 | 35068 ft | 448 kts | 125° |
| 2026-04-28 09:43 | 46.86819 | 8.22674 | 35072 ft | 449 kts | 125° |
| 2026-04-28 09:44 | 46.83588 | 8.30472 | 35070 ft | 448 kts | 125° |
| 2026-04-28 09:44 | 46.80356 | 8.38253 | 35067 ft | 447 kts | 125° |
| 2026-04-28 09:45 | 46.77121 | 8.46015 | 35067 ft | 449 kts | 125° |
| 2026-04-28 09:45 | 46.73874 | 8.53791 | 35069 ft | 448 kts | 125° |
| 2026-04-28 09:46 | 46.70624 | 8.61544 | 35071 ft | 449 kts | 125° |
| 2026-04-28 09:46 | 46.67357 | 8.69320 | 35076 ft | 449 kts | 125° |
| 2026-04-28 09:47 | 46.64118 | 8.77009 | 35079 ft | 448 kts | 125° |
| 2026-04-28 09:47 | 46.60864 | 8.84709 | 35069 ft | 446 kts | 125° |
| 2026-04-28 09:48 | 46.57592 | 8.92430 | 35068 ft | 449 kts | 125° |
| 2026-04-28 09:48 | 46.54303 | 9.00172 | 35081 ft | 451 kts | 124° |
| 2026-04-28 09:49 | 46.51002 | 9.07919 | 35082 ft | 450 kts | 125° |
| 2026-04-28 09:49 | 46.47710 | 9.15621 | 35081 ft | 448 kts | 125° |
| 2026-04-28 09:50 | 46.44423 | 9.23295 | 35098 ft | 448 kts | 125° |
| 2026-04-28 09:50 | 46.41130 | 9.30955 | 35089 ft | 449 kts | 125° |
| 2026-04-28 09:51 | 46.37837 | 9.38603 | 35121 ft | 452 kts | 125° |
| 2026-04-28 09:51 | 46.34497 | 9.46330 | 35115 ft | 450 kts | 125° |
| 2026-04-28 09:52 | 46.31182 | 9.53985 | 35129 ft | 449 kts | 125° |
| 2026-04-28 09:52 | 46.27841 | 9.61673 | 35131 ft | 451 kts | 125° |
| 2026-04-28 09:53 | 46.24512 | 9.69317 | 35138 ft | 453 kts | 125° |
| 2026-04-28 09:53 | 46.21155 | 9.77002 | 35123 ft | 450 kts | 125° |
| 2026-04-28 09:54 | 46.17799 | 9.84657 | 35130 ft | 452 kts | 125° |
| 2026-04-28 09:54 | 46.14980 | 9.91086 | 35131 ft | 453 kts | 125° |
| 2026-04-28 09:55 | 46.11626 | 9.98699 | 35115 ft | 452 kts | 125° |
| 2026-04-28 09:55 | 46.08245 | 10.06360 | 35116 ft | 454 kts | 125° |
| 2026-04-28 09:56 | 46.04848 | 10.14033 | 34894 ft | 457 kts | 125° |
| 2026-04-28 09:56 | 46.03043 | 10.17788 | 34366 ft | 452 kts | 130° |
| 2026-04-28 09:56 | 46.01047 | 10.21247 | 33788 ft | 445 kts | 136° |
| 2026-04-28 09:57 | 45.98952 | 10.24509 | 33213 ft | 444 kts | 136° |
| 2026-04-28 09:57 | 45.96898 | 10.27852 | 32684 ft | 448 kts | 134° |
| 2026-04-28 09:57 | 45.94914 | 10.31329 | 32041 ft | 452 kts | 133° |
| 2026-04-28 09:57 | 45.92929 | 10.34754 | 31359 ft | 451 kts | 134° |
| 2026-04-28 09:58 | 45.90866 | 10.38158 | 30781 ft | 450 kts | 134° |
| 2026-04-28 09:58 | 45.88813 | 10.41548 | 30273 ft | 449 kts | 134° |
| 2026-04-28 09:58 | 45.86797 | 10.44956 | 30100 ft | 447 kts | 133° |
| 2026-04-28 09:58 | 45.84766 | 10.48380 | 30100 ft | 453 kts | 134° |
| 2026-04-28 09:59 | 45.80646 | 10.55239 | 30093 ft | 453 kts | 134° |
| 2026-04-28 09:59 | 45.78591 | 10.58669 | 29967 ft | 455 kts | 134° |
| 2026-04-28 09:59 | 45.76521 | 10.62122 | 29338 ft | 454 kts | 134° |
| 2026-04-28 10:00 | 45.74469 | 10.65538 | 28714 ft | 450 kts | 134° |
| 2026-04-28 10:00 | 45.72420 | 10.68940 | 28118 ft | 451 kts | 134° |
| 2026-04-28 10:00 | 45.70365 | 10.72341 | 27540 ft | 452 kts | 133° |
| 2026-04-28 10:00 | 45.68338 | 10.75705 | 26982 ft | 449 kts | 133° |
| 2026-04-28 10:01 | 45.66306 | 10.79074 | 26427 ft | 445 kts | 133° |
| 2026-04-28 10:01 | 45.64294 | 10.82400 | 25866 ft | 440 kts | 133° |
| 2026-04-28 10:01 | 45.62300 | 10.85687 | 25331 ft | 435 kts | 134° |
| 2026-04-28 10:01 | 45.60326 | 10.88943 | 24741 ft | 433 kts | 133° |
| 2026-04-28 10:02 | 45.58362 | 10.92180 | 24156 ft | 429 kts | 133° |
| 2026-04-28 10:02 | 45.56416 | 10.95382 | 23567 ft | 424 kts | 133° |
| 2026-04-28 10:02 | 45.54490 | 10.98546 | 22877 ft | 419 kts | 133° |
| 2026-04-28 10:02 | 45.52586 | 11.01672 | 22212 ft | 414 kts | 133° |
| 2026-04-28 10:03 | 45.50705 | 11.04755 | 21565 ft | 410 kts | 133° |
| 2026-04-28 10:03 | 45.48871 | 11.07763 | 20936 ft | 404 kts | 133° |
| 2026-04-28 10:03 | 45.47014 | 11.10800 | 20303 ft | 398 kts | 133° |
| 2026-04-28 10:03 | 45.45225 | 11.13723 | 19688 ft | 393 kts | 133° |
| 2026-04-28 10:04 | 45.43434 | 11.16648 | 18946 ft | 391 kts | 133° |
| 2026-04-28 10:04 | 45.41662 | 11.19540 | 18195 ft | 384 kts | 133° |
| 2026-04-28 10:04 | 45.39912 | 11.22388 | 17369 ft | 379 kts | 133° |
| 2026-04-28 10:04 | 45.38198 | 11.25179 | 16850 ft | 369 kts | 133° |
| 2026-04-28 10:05 | 45.36495 | 11.27944 | 16360 ft | 370 kts | 133° |
| 2026-04-28 10:05 | 45.34807 | 11.30691 | 15873 ft | 367 kts | 133° |
| 2026-04-28 10:05 | 45.33127 | 11.33414 | 15391 ft | 365 kts | 133° |
| 2026-04-28 10:05 | 45.31483 | 11.36081 | 14917 ft | 362 kts | 133° |
| 2026-04-28 10:06 | 45.29831 | 11.38759 | 14443 ft | 353 kts | 133° |
| 2026-04-28 10:06 | 45.28266 | 11.41293 | 13987 ft | 330 kts | 133° |
| 2026-04-28 10:06 | 45.26794 | 11.43671 | 13532 ft | 311 kts | 133° |
| 2026-04-28 10:06 | 45.25401 | 11.45916 | 13125 ft | 294 kts | 133° |
| 2026-04-28 10:07 | 45.24086 | 11.48040 | 12749 ft | 280 kts | 133° |
| 2026-04-28 10:07 | 45.22830 | 11.50067 | 12392 ft | 268 kts | 133° |
| 2026-04-28 10:07 | 45.21621 | 11.52014 | 12047 ft | 259 kts | 134° |
| 2026-04-28 10:07 | 45.20446 | 11.53904 | 11714 ft | 253 kts | 133° |
| 2026-04-28 10:08 | 45.19289 | 11.55768 | 11386 ft | 251 kts | 133° |
| 2026-04-28 10:08 | 45.18144 | 11.57607 | 11063 ft | 252 kts | 134° |
| 2026-04-28 10:08 | 45.16983 | 11.59472 | 10735 ft | 251 kts | 133° |
| 2026-04-28 10:08 | 45.15834 | 11.61321 | 10399 ft | 248 kts | 133° |
| 2026-04-28 10:09 | 45.14694 | 11.63150 | 10078 ft | 246 kts | 133° |
| 2026-04-28 10:09 | 45.13564 | 11.64963 | 9729 ft | 244 kts | 133° |
| 2026-04-28 10:09 | 45.12445 | 11.66759 | 9398 ft | 242 kts | 133° |
| 2026-04-28 10:09 | 45.11332 | 11.68540 | 9071 ft | 241 kts | 134° |
| 2026-04-28 10:10 | 45.10237 | 11.70291 | 8832 ft | 238 kts | 133° |
| 2026-04-28 10:10 | 45.09140 | 11.72042 | 8648 ft | 238 kts | 134° |
| 2026-04-28 10:10 | 45.08038 | 11.73798 | 8459 ft | 239 kts | 133° |
| 2026-04-28 10:10 | 45.07050 | 11.75677 | 8248 ft | 241 kts | 113° |
| 2026-04-28 10:11 | 45.06857 | 11.78023 | 8068 ft | 243 kts | 85° |
| 2026-04-28 10:11 | 45.07400 | 11.80275 | 7876 ft | 245 kts | 58° |
| 2026-04-28 10:11 | 45.08558 | 11.82025 | 7687 ft | 243 kts | 40° |
| 2026-04-28 10:11 | 45.09814 | 11.83528 | 7506 ft | 231 kts | 40° |
| 2026-04-28 10:12 | 45.10990 | 11.84974 | 7299 ft | 217 kts | 41° |
| 2026-04-28 10:12 | 45.12086 | 11.86354 | 7107 ft | 205 kts | 41° |
| 2026-04-28 10:12 | 45.13128 | 11.87664 | 6937 ft | 195 kts | 41° |
| 2026-04-28 10:12 | 45.14120 | 11.88915 | 6780 ft | 187 kts | 42° |
| 2026-04-28 10:13 | 45.15073 | 11.90112 | 6632 ft | 180 kts | 42° |
| 2026-04-28 10:13 | 45.15993 | 11.91270 | 6476 ft | 172 kts | 41° |
| 2026-04-28 10:13 | 45.16864 | 11.92366 | 6331 ft | 163 kts | 41° |
| 2026-04-28 10:13 | 45.17686 | 11.93401 | 6193 ft | 154 kts | 41° |
| 2026-04-28 10:14 | 45.18475 | 11.94393 | 6072 ft | 150 kts | 41° |
| 2026-04-28 10:14 | 45.19263 | 11.95385 | 5966 ft | 152 kts | 41° |
| 2026-04-28 10:14 | 45.20056 | 11.96382 | 5854 ft | 152 kts | 42° |
| 2026-04-28 10:14 | 45.20850 | 11.97384 | 5731 ft | 152 kts | 42° |
| 2026-04-28 10:15 | 45.21632 | 11.98371 | 5604 ft | 152 kts | 42° |
| 2026-04-28 10:15 | 45.22427 | 11.99371 | 5476 ft | 153 kts | 43° |
| 2026-04-28 10:15 | 45.23219 | 12.00374 | 5355 ft | 152 kts | 43° |
| 2026-04-28 10:15 | 45.24009 | 12.01366 | 5227 ft | 151 kts | 43° |
| 2026-04-28 10:16 | 45.24794 | 12.02358 | 5102 ft | 151 kts | 44° |
| 2026-04-28 10:16 | 45.25580 | 12.03352 | 4976 ft | 152 kts | 44° |
| 2026-04-28 10:16 | 45.26369 | 12.04346 | 4851 ft | 151 kts | 43° |
| 2026-04-28 10:16 | 45.27149 | 12.05334 | 4720 ft | 149 kts | 43° |
| 2026-04-28 10:17 | 45.27921 | 12.06309 | 4598 ft | 148 kts | 43° |
| 2026-04-28 10:17 | 45.28683 | 12.07278 | 4476 ft | 147 kts | 43° |
| 2026-04-28 10:17 | 45.29435 | 12.08236 | 4356 ft | 146 kts | 43° |
| 2026-04-28 10:17 | 45.30194 | 12.09198 | 4237 ft | 146 kts | 43° |
| 2026-04-28 10:18 | 45.30952 | 12.10160 | 4116 ft | 146 kts | 43° |
| 2026-04-28 10:18 | 45.31701 | 12.11111 | 3985 ft | 143 kts | 43° |
| 2026-04-28 10:18 | 45.32437 | 12.12050 | 3869 ft | 142 kts | 44° |
| 2026-04-28 10:18 | 45.33164 | 12.12975 | 3762 ft | 139 kts | 43° |
| 2026-04-28 10:19 | 45.33882 | 12.13893 | 3639 ft | 138 kts | 43° |
| 2026-04-28 10:19 | 45.34592 | 12.14796 | 3524 ft | 138 kts | 43° |
| 2026-04-28 10:19 | 45.35280 | 12.15671 | 3447 ft | 123 kts | 43° |
| 2026-04-28 10:19 | 45.35889 | 12.16449 | 3282 ft | 115 kts | 43° |
| 2026-04-28 10:20 | 45.36489 | 12.17215 | 3199 ft | 115 kts | 44° |
| 2026-04-28 10:20 | 45.37086 | 12.17976 | 3111 ft | 115 kts | 43° |
| 2026-04-28 10:20 | 45.37691 | 12.18750 | 3031 ft | 117 kts | 43° |
| 2026-04-28 10:20 | 45.38287 | 12.19512 | 2998 ft | 119 kts | 44° |
| 2026-04-28 10:21 | 45.38887 | 12.20274 | 2999 ft | 116 kts | 44° |
| 2026-04-28 10:21 | 45.39484 | 12.21037 | 3000 ft | 115 kts | 43° |
| 2026-04-28 10:21 | 45.40082 | 12.21795 | 2991 ft | 115 kts | 44° |
| 2026-04-28 10:21 | 45.40675 | 12.22556 | 3001 ft | 115 kts | 43° |
| 2026-04-28 10:22 | 45.41273 | 12.23322 | 2999 ft | 116 kts | 44° |
| 2026-04-28 10:22 | 45.41869 | 12.24080 | 3005 ft | 116 kts | 42° |
| 2026-04-28 10:22 | 45.42530 | 12.24876 | 2461 ft | 132 kts | 41° |
| 2026-04-28 10:22 | 45.43203 | 12.25731 | 1989 ft | 129 kts | 43° |
| 2026-04-28 10:23 | 45.43885 | 12.26572 | 1504 ft | 129 kts | 41° |
| 2026-04-28 10:23 | 45.44535 | 12.27377 | 1230 ft | 120 kts | 43° |
| 2026-04-28 10:23 | 45.45127 | 12.28152 | 938 ft | 110 kts | 45° |
| 2026-04-28 10:23 | 45.45694 | 12.28937 | 755 ft | 115 kts | 45° |
| 2026-04-28 10:24 | 45.46269 | 12.29672 | 694 ft | 111 kts | 43° |
| 2026-04-28 10:24 | 45.46842 | 12.30440 | 578 ft | 112 kts | 47° |
| 2026-04-28 10:24 | 45.47429 | 12.31204 | 432 ft | 119 kts | 42° |
| 2026-04-28 10:24 | 45.48042 | 12.31946 | 333 ft | 111 kts | 44° |
| 2026-04-28 10:25 | 45.48609 | 12.32723 | 242 ft | 120 kts | 47° |
| 2026-04-28 10:25 | 45.49203 | 12.33512 | 102 ft | 113 kts | 44° |
| 2026-04-28 10:25 | 45.49813 | 12.34273 | 12 ft | 112 kts | 44° |
| 2026-04-28 10:25 | 45.50224 | 12.34806 | 8 ft | 48 kts | 41° |
| 2026-04-28 10:26 | 45.50486 | 12.35048 | 6 ft | 42 kts | 14° |
| 2026-04-28 10:26 | 45.50617 | 12.34844 | 9 ft | 34 kts | 263° |
| 2026-04-28 10:26 | 45.50730 | 12.34575 | 7 ft | 31 kts | 335° |